sensor_id;sensor_type;location;lat;lon;timestamp;pressure;altitude;pressure_sealevel;temperature;humidity
63691;BME280;49837;57.280;27.070;2024-03-08T00:00:17;100898.02;;;-4.83;100.0
63691;BME280;49837;57.280;27.070;2024-03-08T00:01:15;100897.41;;;-4.76;100.0
63691;BME280;49837;57.280;27.070;2024-03-08T00:02:16;100898.62;;;-4.7;100.0
63691;BME280;49837;57.280;27.070;2024-03-08T00:03:16;100894.38;;;-4.69;100.0
63691;BME280;49837;57.280;27.070;2024-03-08T00:04:17;100898.16;;;-4.7;100.0
63691;BME280;49837;57.280;27.070;2024-03-08T00:05:17;100902.25;;;-4.66;100.0
63691;BME280;49837;57.280;27.070;2024-03-08T00:06:17;100900.16;;;-4.69;100.0
63691;BME280;49837;57.280;27.070;2024-03-08T00:07:18;100899.55;;;-4.7;100.0
63691;BME280;49837;57.280;27.070;2024-03-08T00:08:18;100903.54;;;-4.7;100.0
63691;BME280;49837;57.280;27.070;2024-03-08T00:09:18;100898.42;;;-4.68;100.0
63691;BME280;49837;57.280;27.070;2024-03-08T00:10:19;100898.59;;;-4.68;100.0
63691;BME280;49837;57.280;27.070;2024-03-08T00:11:19;100901.88;;;-4.67;100.0
63691;BME280;49837;57.280;27.070;2024-03-08T00:12:20;100894.09;;;-4.64;100.0
63691;BME280;49837;57.280;27.070;2024-03-08T00:13:20;100892.33;;;-4.57;100.0
63691;BME280;49837;57.280;27.070;2024-03-08T00:14:20;100889.81;;;-4.56;100.0
63691;BME280;49837;57.280;27.070;2024-03-08T00:15:21;100893.28;;;-4.51;100.0
63691;BME280;49837;57.280;27.070;2024-03-08T00:16:21;100891.47;;;-4.59;100.0
63691;BME280;49837;57.280;27.070;2024-03-08T00:17:22;100889.25;;;-4.62;100.0
63691;BME280;49837;57.280;27.070;2024-03-08T00:18:22;100887.85;;;-4.64;100.0
63691;BME280;49837;57.280;27.070;2024-03-08T00:19:22;100887.7;;;-4.62;100.0
63691;BME280;49837;57.280;27.070;2024-03-08T00:20:23;100886.53;;;-4.6;100.0
63691;BME280;49837;57.280;27.070;2024-03-08T00:21:23;100886.38;;;-4.59;100.0
63691;BME280;49837;57.280;27.070;2024-03-08T00:22:24;100883.75;;;-4.55;100.0
63691;BME280;49837;57.280;27.070;2024-03-08T00:23:24;100882.95;;;-4.49;100.0
63691;BME280;49837;57.280;27.070;2024-03-08T00:24:24;100885.84;;;-4.48;100.0
63691;BME280;49837;57.280;27.070;2024-03-08T00:25:25;100885.56;;;-4.49;100.0
63691;BME280;49837;57.280;27.070;2024-03-08T00:26:25;100881.52;;;-4.5;100.0
63691;BME280;49837;57.280;27.070;2024-03-08T00:27:26;100881.55;;;-4.55;100.0
63691;BME280;49837;57.280;27.070;2024-03-08T00:28:26;100881.12;;;-4.57;100.0
63691;BME280;49837;57.280;27.070;2024-03-08T00:29:26;100875.46;;;-4.59;100.0
63691;BME280;49837;57.280;27.070;2024-03-08T00:30:27;100879.09;;;-4.59;100.0
63691;BME280;49837;57.280;27.070;2024-03-08T00:31:27;100876.76;;;-4.6;100.0
63691;BME280;49837;57.280;27.070;2024-03-08T00:32:28;100870.48;;;-4.63;100.0
63691;BME280;49837;57.280;27.070;2024-03-08T00:33:28;100876.58;;;-4.65;100.0
63691;BME280;49837;57.280;27.070;2024-03-08T00:34:28;100872.91;;;-4.68;100.0
63691;BME280;49837;57.280;27.070;2024-03-08T00:35:29;100874.85;;;-4.69;100.0
63691;BME280;49837;57.280;27.070;2024-03-08T00:36:29;100870.92;;;-4.73;100.0
63691;BME280;49837;57.280;27.070;2024-03-08T00:37:29;100868.19;;;-4.74;100.0
63691;BME280;49837;57.280;27.070;2024-03-08T00:38:30;100866.96;;;-4.86;100.0
63691;BME280;49837;57.280;27.070;2024-03-08T00:39:30;100867.39;;;-4.89;100.0
63691;BME280;49837;57.280;27.070;2024-03-08T00:40:31;100863.89;;;-4.89;100.0
63691;BME280;49837;57.280;27.070;2024-03-08T00:41:31;100865.95;;;-4.83;100.0
63691;BME280;49837;57.280;27.070;2024-03-08T00:42:31;100870.23;;;-4.81;100.0
63691;BME280;49837;57.280;27.070;2024-03-08T00:43:32;100872.78;;;-4.75;100.0
63691;BME280;49837;57.280;27.070;2024-03-08T00:44:32;100871.56;;;-4.7;100.0
63691;BME280;49837;57.280;27.070;2024-03-08T00:45:33;100876.2;;;-4.66;100.0
63691;BME280;49837;57.280;27.070;2024-03-08T00:46:33;100871.84;;;-4.59;100.0
63691;BME280;49837;57.280;27.070;2024-03-08T00:47:34;100866.59;;;-4.58;100.0
63691;BME280;49837;57.280;27.070;2024-03-08T00:48:34;100868.36;;;-4.53;100.0
63691;BME280;49837;57.280;27.070;2024-03-08T00:49:34;100870.62;;;-4.48;100.0
63691;BME280;49837;57.280;27.070;2024-03-08T00:50:35;100866.34;;;-4.5;100.0
63691;BME280;49837;57.280;27.070;2024-03-08T00:51:35;100868.09;;;-4.51;100.0
63691;BME280;49837;57.280;27.070;2024-03-08T00:52:36;100869.31;;;-4.48;100.0
63691;BME280;49837;57.280;27.070;2024-03-08T00:53:36;100868.45;;;-4.39;100.0
63691;BME280;49837;57.280;27.070;2024-03-08T00:54:36;100860.45;;;-4.34;100.0
63691;BME280;49837;57.280;27.070;2024-03-08T00:55:37;100866.78;;;-4.28;100.0
63691;BME280;49837;57.280;27.070;2024-03-08T00:56:37;100862.52;;;-4.37;100.0
63691;BME280;49837;57.280;27.070;2024-03-08T00:57:37;100862.56;;;-4.34;100.0
63691;BME280;49837;57.280;27.070;2024-03-08T00:58:38;100862.28;;;-4.31;100.0
63691;BME280;49837;57.280;27.070;2024-03-08T00:59:38;100861.64;;;-4.28;100.0
63691;BME280;49837;57.280;27.070;2024-03-08T01:00:39;100859.39;;;-4.3;100.0
63691;BME280;49837;57.280;27.070;2024-03-08T01:01:40;100856.63;;;-4.28;100.0
63691;BME280;49837;57.280;27.070;2024-03-08T01:02:40;100858.36;;;-4.25;100.0
63691;BME280;49837;57.280;27.070;2024-03-08T01:03:40;100853.71;;;-4.24;100.0
63691;BME280;49837;57.280;27.070;2024-03-08T01:04:40;100853.47;;;-4.23;100.0
63691;BME280;49837;57.280;27.070;2024-03-08T01:05:41;100854.27;;;-4.26;100.0
63691;BME280;49837;57.280;27.070;2024-03-08T01:06:41;100851.02;;;-4.28;100.0
63691;BME280;49837;57.280;27.070;2024-03-08T01:07:41;100849.75;;;-4.27;100.0
63691;BME280;49837;57.280;27.070;2024-03-08T01:08:42;100851.31;;;-4.25;100.0
63691;BME280;49837;57.280;27.070;2024-03-08T01:09:42;100852.78;;;-4.22;100.0
63691;BME280;49837;57.280;27.070;2024-03-08T01:10:43;100857.14;;;-4.21;100.0
63691;BME280;49837;57.280;27.070;2024-03-08T01:11:43;100856.62;;;-4.18;100.0
63691;BME280;49837;57.280;27.070;2024-03-08T01:12:43;100855.59;;;-4.19;100.0
63691;BME280;49837;57.280;27.070;2024-03-08T01:13:44;100859.95;;;-4.22;100.0
63691;BME280;49837;57.280;27.070;2024-03-08T01:14:44;100855.51;;;-4.2;100.0
63691;BME280;49837;57.280;27.070;2024-03-08T01:15:45;100851.82;;;-4.16;100.0
63691;BME280;49837;57.280;27.070;2024-03-08T01:16:45;100855.11;;;-4.15;100.0
63691;BME280;49837;57.280;27.070;2024-03-08T01:17:45;100854.13;;;-4.19;100.0
63691;BME280;49837;57.280;27.070;2024-03-08T01:18:46;100857.59;;;-4.22;100.0
63691;BME280;49837;57.280;27.070;2024-03-08T01:19:46;100855.38;;;-4.26;100.0
63691;BME280;49837;57.280;27.070;2024-03-08T01:20:46;100860.02;;;-4.27;100.0
63691;BME280;49837;57.280;27.070;2024-03-08T01:21:47;100859.32;;;-4.28;100.0
63691;BME280;49837;57.280;27.070;2024-03-08T01:22:47;100857.41;;;-4.31;100.0
63691;BME280;49837;57.280;27.070;2024-03-08T01:23:48;100854.97;;;-4.28;100.0
63691;BME280;49837;57.280;27.070;2024-03-08T01:24:48;100853.72;;;-4.2;100.0
63691;BME280;49837;57.280;27.070;2024-03-08T01:25:48;100852.99;;;-4.19;100.0
63691;BME280;49837;57.280;27.070;2024-03-08T01:26:49;100857.26;;;-4.22;100.0
63691;BME280;49837;57.280;27.070;2024-03-08T01:27:49;100854.41;;;-4.25;100.0
63691;BME280;49837;57.280;27.070;2024-03-08T01:28:50;100853.55;;;-4.24;100.0
63691;BME280;49837;57.280;27.070;2024-03-08T01:29:50;100851.55;;;-4.24;100.0
63691;BME280;49837;57.280;27.070;2024-03-08T01:30:51;100857.47;;;-4.2;100.0
63691;BME280;49837;57.280;27.070;2024-03-08T01:31:51;100854.05;;;-4.21;100.0
63691;BME280;49837;57.280;27.070;2024-03-08T01:32:51;100857.05;;;-4.28;100.0
63691;BME280;49837;57.280;27.070;2024-03-08T01:33:52;100856.8;;;-4.28;100.0
63691;BME280;49837;57.280;27.070;2024-03-08T01:34:52;100857.42;;;-4.26;100.0
63691;BME280;49837;57.280;27.070;2024-03-08T01:35:53;100853.67;;;-4.26;100.0
63691;BME280;49837;57.280;27.070;2024-03-08T01:36:53;100851.22;;;-4.28;100.0
63691;BME280;49837;57.280;27.070;2024-03-08T01:37:53;100853.33;;;-4.31;100.0
63691;BME280;49837;57.280;27.070;2024-03-08T01:38:54;100855.16;;;-4.3;100.0
63691;BME280;49837;57.280;27.070;2024-03-08T01:39:54;100858.45;;;-4.33;100.0
63691;BME280;49837;57.280;27.070;2024-03-08T01:40:55;100856.66;;;-4.37;100.0
63691;BME280;49837;57.280;27.070;2024-03-08T01:41:55;100855.55;;;-4.38;100.0
63691;BME280;49837;57.280;27.070;2024-03-08T01:42:56;100855.94;;;-4.41;100.0
63691;BME280;49837;57.280;27.070;2024-03-08T01:43:56;100861.38;;;-4.35;100.0
63691;BME280;49837;57.280;27.070;2024-03-08T01:44:56;100859.47;;;-4.32;100.0
63691;BME280;49837;57.280;27.070;2024-03-08T01:46:00;100857.77;;;-4.28;100.0
63691;BME280;49837;57.280;27.070;2024-03-08T01:46:58;100860.95;;;-4.28;100.0
63691;BME280;49837;57.280;27.070;2024-03-08T01:47:58;100861.67;;;-4.32;100.0
63691;BME280;49837;57.280;27.070;2024-03-08T01:48:59;100859.48;;;-4.3;100.0
63691;BME280;49837;57.280;27.070;2024-03-08T01:50:00;100858.22;;;-4.29;100.0
63691;BME280;49837;57.280;27.070;2024-03-08T01:51:00;100863.48;;;-4.27;100.0
63691;BME280;49837;57.280;27.070;2024-03-08T01:52:00;100863.72;;;-4.29;100.0
63691;BME280;49837;57.280;27.070;2024-03-08T01:53:00;100862.33;;;-4.3;100.0
63691;BME280;49837;57.280;27.070;2024-03-08T01:54:01;100857.8;;;-4.33;100.0
63691;BME280;49837;57.280;27.070;2024-03-08T01:55:02;100857.27;;;-4.34;100.0
63691;BME280;49837;57.280;27.070;2024-03-08T01:56:02;100858.08;;;-4.36;100.0
63691;BME280;49837;57.280;27.070;2024-03-08T01:57:02;100861.17;;;-4.36;100.0
63691;BME280;49837;57.280;27.070;2024-03-08T01:58:06;100856.33;;;-4.35;100.0
63691;BME280;49837;57.280;27.070;2024-03-08T01:59:07;100856.13;;;-4.34;100.0
63691;BME280;49837;57.280;27.070;2024-03-08T02:00:07;100856.91;;;-4.31;100.0
63691;BME280;49837;57.280;27.070;2024-03-08T02:01:07;100859.43;;;-4.35;100.0
63691;BME280;49837;57.280;27.070;2024-03-08T02:02:08;100860.45;;;-4.34;100.0
63691;BME280;49837;57.280;27.070;2024-03-08T02:03:08;100860.82;;;-4.44;100.0
63691;BME280;49837;57.280;27.070;2024-03-08T02:04:08;100859.54;;;-4.5;100.0
63691;BME280;49837;57.280;27.070;2024-03-08T02:05:09;100854.22;;;-4.48;100.0
63691;BME280;49837;57.280;27.070;2024-03-08T02:06:12;100853.98;;;-4.45;100.0
63691;BME280;49837;57.280;27.070;2024-03-08T02:07:10;100859.52;;;-4.44;100.0
63691;BME280;49837;57.280;27.070;2024-03-08T02:08:11;100855.3;;;-4.5;100.0
63691;BME280;49837;57.280;27.070;2024-03-08T02:09:11;100855.09;;;-4.53;100.0
63691;BME280;49837;57.280;27.070;2024-03-08T02:10:11;100855.97;;;-4.49;100.0
63691;BME280;49837;57.280;27.070;2024-03-08T02:11:12;100853.72;;;-4.49;100.0
63691;BME280;49837;57.280;27.070;2024-03-08T02:12:12;100853.94;;;-4.45;100.0
63691;BME280;49837;57.280;27.070;2024-03-08T02:13:13;100854.5;;;-4.46;100.0
63691;BME280;49837;57.280;27.070;2024-03-08T02:14:13;100854.88;;;-4.47;100.0
63691;BME280;49837;57.280;27.070;2024-03-08T02:15:13;100855.85;;;-4.45;100.0
63691;BME280;49837;57.280;27.070;2024-03-08T02:17:17;100851.84;;;-4.49;100.0
63691;BME280;49837;57.280;27.070;2024-03-08T02:18:17;100856.69;;;-4.52;100.0
63691;BME280;49837;57.280;27.070;2024-03-08T02:19:18;100850.98;;;-4.5;100.0
63691;BME280;49837;57.280;27.070;2024-03-08T02:20:18;100848.4;;;-4.47;100.0
63691;BME280;49837;57.280;27.070;2024-03-08T02:21:18;100850.59;;;-4.48;100.0
63691;BME280;49837;57.280;27.070;2024-03-08T02:22:19;100847.67;;;-4.43;100.0
63691;BME280;49837;57.280;27.070;2024-03-08T02:23:20;100848.65;;;-4.43;100.0
63691;BME280;49837;57.280;27.070;2024-03-08T02:24:19;100842.91;;;-4.43;100.0
63691;BME280;49837;57.280;27.070;2024-03-08T02:25:20;100845.19;;;-4.45;100.0
63691;BME280;49837;57.280;27.070;2024-03-08T02:26:20;100847.88;;;-4.43;100.0
63691;BME280;49837;57.280;27.070;2024-03-08T02:28:24;100848.12;;;-4.44;100.0
63691;BME280;49837;57.280;27.070;2024-03-08T02:29:24;100843.55;;;-4.47;100.0
63691;BME280;49837;57.280;27.070;2024-03-08T02:30:24;100842.38;;;-4.45;100.0
63691;BME280;49837;57.280;27.070;2024-03-08T02:31:25;100840.38;;;-4.43;100.0
63691;BME280;49837;57.280;27.070;2024-03-08T02:32:25;100842.14;;;-4.41;100.0
63691;BME280;49837;57.280;27.070;2024-03-08T02:33:28;100840.96;;;-4.42;100.0
63691;BME280;49837;57.280;27.070;2024-03-08T02:34:26;100839.41;;;-4.42;100.0
63691;BME280;49837;57.280;27.070;2024-03-08T02:35:26;100836.05;;;-4.39;100.0
63691;BME280;49837;57.280;27.070;2024-03-08T02:36:27;100837.06;;;-4.38;100.0
63691;BME280;49837;57.280;27.070;2024-03-08T02:37:27;100838.11;;;-4.43;100.0
63691;BME280;49837;57.280;27.070;2024-03-08T02:38:28;100836.98;;;-4.4;100.0
63691;BME280;49837;57.280;27.070;2024-03-08T02:39:28;100834.02;;;-4.39;100.0
63691;BME280;49837;57.280;27.070;2024-03-08T02:40:28;100837.1;;;-4.37;100.0
63691;BME280;49837;57.280;27.070;2024-03-08T02:41:29;100837.72;;;-4.38;100.0
63691;BME280;49837;57.280;27.070;2024-03-08T02:42:29;100832.58;;;-4.4;100.0
63691;BME280;49837;57.280;27.070;2024-03-08T02:43:30;100825.79;;;-4.35;100.0
63691;BME280;49837;57.280;27.070;2024-03-08T02:44:30;100826.81;;;-4.32;100.0
63691;BME280;49837;57.280;27.070;2024-03-08T02:45:31;100825.15;;;-4.33;100.0
63691;BME280;49837;57.280;27.070;2024-03-08T02:46:31;100821.16;;;-4.35;100.0
63691;BME280;49837;57.280;27.070;2024-03-08T02:47:31;100826.48;;;-4.38;100.0
63691;BME280;49837;57.280;27.070;2024-03-08T02:48:32;100826.69;;;-4.39;100.0
63691;BME280;49837;57.280;27.070;2024-03-08T02:49:32;100834.73;;;-4.4;100.0
63691;BME280;49837;57.280;27.070;2024-03-08T02:50:33;100838.27;;;-4.41;100.0
63691;BME280;49837;57.280;27.070;2024-03-08T02:51:33;100845.93;;;-4.41;100.0
63691;BME280;49837;57.280;27.070;2024-03-08T02:52:34;100847.88;;;-4.42;100.0
63691;BME280;49837;57.280;27.070;2024-03-08T02:53:33;100843.72;;;-4.44;100.0
63691;BME280;49837;57.280;27.070;2024-03-08T02:54:34;100834.84;;;-4.45;100.0
63691;BME280;49837;57.280;27.070;2024-03-08T02:55:34;100842.72;;;-4.39;100.0
63691;BME280;49837;57.280;27.070;2024-03-08T02:56:35;100840.28;;;-4.37;100.0
63691;BME280;49837;57.280;27.070;2024-03-08T02:57:35;100842.16;;;-4.37;100.0
63691;BME280;49837;57.280;27.070;2024-03-08T02:58:35;100851.57;;;-4.34;100.0
63691;BME280;49837;57.280;27.070;2024-03-08T02:59:36;100845.24;;;-4.4;100.0
63691;BME280;49837;57.280;27.070;2024-03-08T03:00:37;100846.58;;;-4.41;100.0
63691;BME280;49837;57.280;27.070;2024-03-08T03:01:37;100843.95;;;-4.39;100.0
63691;BME280;49837;57.280;27.070;2024-03-08T03:02:37;100842.16;;;-4.39;100.0
63691;BME280;49837;57.280;27.070;2024-03-08T03:03:37;100837.59;;;-4.37;100.0
63691;BME280;49837;57.280;27.070;2024-03-08T03:04:40;100835.75;;;-4.4;100.0
63691;BME280;49837;57.280;27.070;2024-03-08T03:05:38;100839.06;;;-4.39;100.0
63691;BME280;49837;57.280;27.070;2024-03-08T03:06:39;100839.02;;;-4.36;100.0
63691;BME280;49837;57.280;27.070;2024-03-08T03:07:39;100843.38;;;-4.35;100.0
63691;BME280;49837;57.280;27.070;2024-03-08T03:08:39;100837.77;;;-4.35;100.0
63691;BME280;49837;57.280;27.070;2024-03-08T03:09:40;100835.23;;;-4.35;100.0
63691;BME280;49837;57.280;27.070;2024-03-08T03:10:40;100832.14;;;-4.35;100.0
63691;BME280;49837;57.280;27.070;2024-03-08T03:11:44;100831.98;;;-4.31;100.0
63691;BME280;49837;57.280;27.070;2024-03-08T03:12:41;100832.57;;;-4.28;100.0
63691;BME280;49837;57.280;27.070;2024-03-08T03:13:42;100830.48;;;-4.32;100.0
63691;BME280;49837;57.280;27.070;2024-03-08T03:14:42;100828.0;;;-4.3;100.0
63691;BME280;49837;57.280;27.070;2024-03-08T03:15:42;100829.55;;;-4.27;100.0
63691;BME280;49837;57.280;27.070;2024-03-08T03:16:43;100829.44;;;-4.26;100.0
63691;BME280;49837;57.280;27.070;2024-03-08T03:18:47;100832.6;;;-4.3;100.0
63691;BME280;49837;57.280;27.070;2024-03-08T03:19:47;100832.69;;;-4.32;100.0
63691;BME280;49837;57.280;27.070;2024-03-08T03:20:47;100832.52;;;-4.34;100.0
63691;BME280;49837;57.280;27.070;2024-03-08T03:21:48;100833.86;;;-4.33;100.0
63691;BME280;49837;57.280;27.070;2024-03-08T03:22:49;100829.62;;;-4.33;100.0
63691;BME280;49837;57.280;27.070;2024-03-08T03:23:48;100830.94;;;-4.29;100.0
63691;BME280;49837;57.280;27.070;2024-03-08T03:24:49;100828.98;;;-4.26;100.0
63691;BME280;49837;57.280;27.070;2024-03-08T03:25:49;100828.71;;;-4.23;100.0
63691;BME280;49837;57.280;27.070;2024-03-08T03:26:50;100829.08;;;-4.18;100.0
63691;BME280;49837;57.280;27.070;2024-03-08T03:27:51;100831.61;;;-4.2;100.0
63691;BME280;49837;57.280;27.070;2024-03-08T03:28:50;100827.0;;;-4.23;100.0
63691;BME280;49837;57.280;27.070;2024-03-08T03:29:51;100830.62;;;-4.25;100.0
63691;BME280;49837;57.280;27.070;2024-03-08T03:30:51;100826.67;;;-4.23;100.0
63691;BME280;49837;57.280;27.070;2024-03-08T03:31:52;100830.02;;;-4.19;100.0
63691;BME280;49837;57.280;27.070;2024-03-08T03:32:53;100828.71;;;-4.21;100.0
63691;BME280;49837;57.280;27.070;2024-03-08T03:33:53;100830.38;;;-4.22;100.0
63691;BME280;49837;57.280;27.070;2024-03-08T03:34:53;100836.53;;;-4.19;100.0
63691;BME280;49837;57.280;27.070;2024-03-08T03:35:53;100830.34;;;-4.19;100.0
63691;BME280;49837;57.280;27.070;2024-03-08T03:36:54;100836.22;;;-4.17;100.0
63691;BME280;49837;57.280;27.070;2024-03-08T03:37:54;100836.42;;;-4.16;100.0
63691;BME280;49837;57.280;27.070;2024-03-08T03:38:55;100842.94;;;-4.14;100.0
63691;BME280;49837;57.280;27.070;2024-03-08T03:39:55;100843.48;;;-4.1;100.0
63691;BME280;49837;57.280;27.070;2024-03-08T03:40:55;100844.61;;;-4.13;100.0
63691;BME280;49837;57.280;27.070;2024-03-08T03:41:56;100839.89;;;-4.1;100.0
63691;BME280;49837;57.280;27.070;2024-03-08T03:42:56;100843.36;;;-4.07;100.0
63691;BME280;49837;57.280;27.070;2024-03-08T03:43:57;100842.09;;;-4.08;100.0
63691;BME280;49837;57.280;27.070;2024-03-08T03:44:57;100840.42;;;-4.07;100.0
63691;BME280;49837;57.280;27.070;2024-03-08T03:45:57;100838.8;;;-4.06;100.0
63691;BME280;49837;57.280;27.070;2024-03-08T03:46:58;100839.81;;;-4.05;100.0
63691;BME280;49837;57.280;27.070;2024-03-08T03:47:58;100838.3;;;-4.07;100.0
63691;BME280;49837;57.280;27.070;2024-03-08T03:48:59;100834.59;;;-4.12;100.0
63691;BME280;49837;57.280;27.070;2024-03-08T03:49:59;100838.7;;;-4.14;100.0
63691;BME280;49837;57.280;27.070;2024-03-08T03:50:59;100836.62;;;-4.17;100.0
63691;BME280;49837;57.280;27.070;2024-03-08T03:52:00;100838.17;;;-4.17;100.0
63691;BME280;49837;57.280;27.070;2024-03-08T03:53:00;100835.23;;;-4.17;100.0
63691;BME280;49837;57.280;27.070;2024-03-08T03:54:01;100838.3;;;-4.16;100.0
63691;BME280;49837;57.280;27.070;2024-03-08T03:55:01;100833.73;;;-4.1;100.0
63691;BME280;49837;57.280;27.070;2024-03-08T03:56:02;100836.92;;;-4.08;100.0
63691;BME280;49837;57.280;27.070;2024-03-08T03:57:02;100836.19;;;-4.07;100.0
63691;BME280;49837;57.280;27.070;2024-03-08T03:58:03;100836.23;;;-4.09;100.0
63691;BME280;49837;57.280;27.070;2024-03-08T03:59:03;100834.72;;;-4.06;100.0
63691;BME280;49837;57.280;27.070;2024-03-08T04:00:04;100834.19;;;-4.09;100.0
63691;BME280;49837;57.280;27.070;2024-03-08T04:01:06;100833.78;;;-4.05;100.0
63691;BME280;49837;57.280;27.070;2024-03-08T04:02:04;100834.86;;;-4.0;100.0
63691;BME280;49837;57.280;27.070;2024-03-08T04:03:04;100834.16;;;-4.01;100.0
63691;BME280;49837;57.280;27.070;2024-03-08T04:04:05;100835.99;;;-4.02;100.0
63691;BME280;49837;57.280;27.070;2024-03-08T04:05:07;100832.91;;;-3.96;100.0
63691;BME280;49837;57.280;27.070;2024-03-08T04:06:06;100835.39;;;-3.96;100.0
63691;BME280;49837;57.280;27.070;2024-03-08T04:07:06;100838.11;;;-3.96;100.0
63691;BME280;49837;57.280;27.070;2024-03-08T04:08:06;100845.45;;;-3.98;100.0
63691;BME280;49837;57.280;27.070;2024-03-08T04:09:07;100843.77;;;-4.05;100.0
63691;BME280;49837;57.280;27.070;2024-03-08T04:10:09;100843.44;;;-4.04;100.0
63691;BME280;49837;57.280;27.070;2024-03-08T04:11:07;100845.72;;;-4.07;100.0
63691;BME280;49837;57.280;27.070;2024-03-08T04:12:08;100840.87;;;-4.13;100.0
63691;BME280;49837;57.280;27.070;2024-03-08T04:13:08;100839.64;;;-4.13;100.0
63691;BME280;49837;57.280;27.070;2024-03-08T04:14:09;100836.19;;;-4.06;100.0
63691;BME280;49837;57.280;27.070;2024-03-08T04:15:09;100833.62;;;-4.06;100.0
63691;BME280;49837;57.280;27.070;2024-03-08T04:16:09;100827.39;;;-4.09;100.0
63691;BME280;49837;57.280;27.070;2024-03-08T04:17:10;100833.66;;;-4.11;100.0
63691;BME280;49837;57.280;27.070;2024-03-08T04:18:10;100835.94;;;-4.11;100.0
63691;BME280;49837;57.280;27.070;2024-03-08T04:19:10;100832.14;;;-4.17;100.0
63691;BME280;49837;57.280;27.070;2024-03-08T04:20:11;100832.14;;;-4.17;100.0
63691;BME280;49837;57.280;27.070;2024-03-08T04:21:11;100828.19;;;-4.19;100.0
63691;BME280;49837;57.280;27.070;2024-03-08T04:22:12;100833.56;;;-4.16;100.0
63691;BME280;49837;57.280;27.070;2024-03-08T04:23:12;100827.22;;;-4.13;100.0
63691;BME280;49837;57.280;27.070;2024-03-08T04:24:12;100826.12;;;-4.11;100.0
63691;BME280;49837;57.280;27.070;2024-03-08T04:25:13;100829.29;;;-4.13;100.0
63691;BME280;49837;57.280;27.070;2024-03-08T04:26:13;100825.95;;;-4.13;100.0
63691;BME280;49837;57.280;27.070;2024-03-08T04:27:14;100822.42;;;-4.07;100.0
63691;BME280;49837;57.280;27.070;2024-03-08T04:28:14;100827.67;;;-4.03;100.0
63691;BME280;49837;57.280;27.070;2024-03-08T04:29:15;100828.5;;;-4.04;100.0
63691;BME280;49837;57.280;27.070;2024-03-08T04:30:15;100821.66;;;-4.02;100.0
63691;BME280;49837;57.280;27.070;2024-03-08T04:31:15;100819.95;;;-3.98;100.0
63691;BME280;49837;57.280;27.070;2024-03-08T04:32:16;100821.73;;;-4.02;100.0
63691;BME280;49837;57.280;27.070;2024-03-08T04:33:16;100822.7;;;-4.04;100.0
63691;BME280;49837;57.280;27.070;2024-03-08T04:34:16;100825.27;;;-4.06;100.0
63691;BME280;49837;57.280;27.070;2024-03-08T04:35:17;100826.01;;;-4.05;100.0
63691;BME280;49837;57.280;27.070;2024-03-08T04:36:17;100820.05;;;-4.12;100.0
63691;BME280;49837;57.280;27.070;2024-03-08T04:37:18;100824.66;;;-4.15;100.0
63691;BME280;49837;57.280;27.070;2024-03-08T04:38:18;100825.14;;;-4.13;100.0
63691;BME280;49837;57.280;27.070;2024-03-08T04:39:19;100827.02;;;-4.11;100.0
63691;BME280;49837;57.280;27.070;2024-03-08T04:40:19;100826.61;;;-4.11;100.0
63691;BME280;49837;57.280;27.070;2024-03-08T04:41:20;100825.26;;;-4.12;100.0
63691;BME280;49837;57.280;27.070;2024-03-08T04:42:20;100832.72;;;-4.13;100.0
63691;BME280;49837;57.280;27.070;2024-03-08T04:43:21;100829.86;;;-4.17;100.0
63691;BME280;49837;57.280;27.070;2024-03-08T04:44:21;100830.71;;;-4.2;100.0
63691;BME280;49837;57.280;27.070;2024-03-08T04:45:22;100825.17;;;-4.16;100.0
63691;BME280;49837;57.280;27.070;2024-03-08T04:46:22;100829.46;;;-4.11;100.0
63691;BME280;49837;57.280;27.070;2024-03-08T04:47:22;100826.98;;;-4.1;100.0
63691;BME280;49837;57.280;27.070;2024-03-08T04:48:23;100827.02;;;-4.13;100.0
63691;BME280;49837;57.280;27.070;2024-03-08T04:49:23;100829.33;;;-4.18;100.0
63691;BME280;49837;57.280;27.070;2024-03-08T04:50:24;100829.45;;;-4.17;100.0
63691;BME280;49837;57.280;27.070;2024-03-08T04:51:25;100829.65;;;-4.19;100.0
63691;BME280;49837;57.280;27.070;2024-03-08T04:52:25;100826.6;;;-4.15;100.0
63691;BME280;49837;57.280;27.070;2024-03-08T04:53:25;100824.59;;;-4.23;100.0
63691;BME280;49837;57.280;27.070;2024-03-08T04:54:25;100829.8;;;-4.29;100.0
63691;BME280;49837;57.280;27.070;2024-03-08T04:55:25;100827.26;;;-4.33;100.0
63691;BME280;49837;57.280;27.070;2024-03-08T04:56:26;100826.66;;;-4.32;100.0
63691;BME280;49837;57.280;27.070;2024-03-08T04:57:26;100822.64;;;-4.28;100.0
63691;BME280;49837;57.280;27.070;2024-03-08T04:58:27;100825.39;;;-4.31;100.0
63691;BME280;49837;57.280;27.070;2024-03-08T04:59:27;100831.21;;;-4.34;100.0
63691;BME280;49837;57.280;27.070;2024-03-08T05:00:28;100828.44;;;-4.32;100.0
63691;BME280;49837;57.280;27.070;2024-03-08T05:01:28;100830.03;;;-4.31;100.0
63691;BME280;49837;57.280;27.070;2024-03-08T05:02:28;100830.52;;;-4.35;100.0
63691;BME280;49837;57.280;27.070;2024-03-08T05:03:29;100827.09;;;-4.35;100.0
63691;BME280;49837;57.280;27.070;2024-03-08T05:04:29;100828.28;;;-4.34;100.0
63691;BME280;49837;57.280;27.070;2024-03-08T05:05:30;100831.27;;;-4.29;100.0
63691;BME280;49837;57.280;27.070;2024-03-08T05:06:30;100826.67;;;-4.42;100.0
63691;BME280;49837;57.280;27.070;2024-03-08T05:07:30;100827.39;;;-4.44;100.0
63691;BME280;49837;57.280;27.070;2024-03-08T05:08:31;100830.45;;;-4.43;100.0
63691;BME280;49837;57.280;27.070;2024-03-08T05:09:31;100832.86;;;-4.42;100.0
63691;BME280;49837;57.280;27.070;2024-03-08T05:10:32;100835.66;;;-4.44;100.0
63691;BME280;49837;57.280;27.070;2024-03-08T05:11:32;100837.61;;;-4.47;100.0
63691;BME280;49837;57.280;27.070;2024-03-08T05:12:33;100838.67;;;-4.46;100.0
63691;BME280;49837;57.280;27.070;2024-03-08T05:13:33;100843.55;;;-4.49;100.0
63691;BME280;49837;57.280;27.070;2024-03-08T05:14:33;100846.2;;;-4.58;100.0
63691;BME280;49837;57.280;27.070;2024-03-08T05:15:33;100840.34;;;-4.57;100.0